Latest Weather Observations for Perth

IDW60801

Issued at 10:35 pm WST Thursday 2 October 2014 (issued every 30 minutes, with the page automatically refreshed every 10 minutes)

About weather observations | Map of weather stations | Latest weather observations for WA | Other Formats
Station Details ID: 009225 Name: PERTH METRO Lat: -31.92 Lon: 115.87 Height: 24.9 m
Data from the previous 72 hours. | See also: Recent months at Perth
Date/Time
WST
Temp
°C
App
Temp
°C
Dew
Point
Rel
Hum
%
Delta-T
°C
Wind Press
QNH
hPa
Press
MSL
hPa
Rain
since 9 am
mm
Dir
 
Spd
km/h
Gust
km/h
Spd
kts
Gust
kts
02/10:30pm 17.8 15.9 12.9 73 2.7 WSW 15 24 8 13 1017.7 1017.6 0.0
02/10:00pm 18.0 16.6 13.3 74 2.6 SW 13 24 7 13 1017.6 1017.5 0.0
02/09:30pm 18.0 16.3 13.5 75 2.6 WSW 15 24 8 13 1017.6 1017.5 0.0
02/09:00pm 18.3 17.1 14.0 76 2.5 WSW 13 22 7 12 1017.5 1017.4 0.0
02/08:30pm 18.2 16.8 14.5 79 2.1 SW 15 26 8 14 1017.4 1017.3 0.0
02/08:00pm 18.4 16.8 15.1 81 1.9 WSW 17 26 9 14 1017.0 1016.9 0.0
02/07:30pm 18.3 17.6 16.3 88 1.2 WSW 15 28 8 15 1016.5 1016.4 0.0
02/07:00pm 19.1 18.3 16.1 83 1.8 WSW 15 26 8 14 1016.0 1015.9 0.0
02/06:30pm 19.4 19.0 16.2 82 1.9 WSW 13 24 7 13 1015.5 1015.4 0.0
02/06:00pm 19.3 19.0 16.5 84 1.7 W 13 22 7 12 1015.1 1015.0 0.0
02/05:30pm 19.6 18.8 16.1 80 2.1 W 15 24 8 13 1014.7 1014.6 0.0
02/05:00pm 20.0 19.1 15.8 77 2.5 WSW 15 22 8 12 1014.3 1014.2 0.0
02/04:30pm 20.5 20.0 15.9 75 2.8 W 13 24 7 13 1013.9 1013.8 0.0
02/04:00pm 21.8 21.0 15.2 66 3.9 W 13 20 7 11 1013.7 1013.6 0.0
02/03:30pm 21.1 19.4 14.7 67 3.8 W 17 26 9 14 1013.3 1013.2 0.0
02/03:00pm 21.7 20.9 16.2 71 3.3 W 15 24 8 13 1013.1 1013.0 0.0
02/02:30pm 22.8 22.4 16.1 66 4.1 WNW 13 26 7 14 1013.0 1012.9 0.0
02/02:00pm 23.2 21.9 15.8 63 4.5 WNW 17 32 9 17 1012.9 1012.8 0.0
02/01:30pm 23.9 22.7 16.2 62 4.7 WNW 17 30 9 16 1012.8 1012.7 0.0
02/01:00pm 23.8 23.1 16.3 63 4.6 NNW 15 30 8 16 1013.1 1013.0 0.0
02/12:30pm 24.2 23.8 17.2 65 4.3 NW 15 30 8 16 1013.1 1013.0 0.0
02/12:00pm 23.9 23.7 16.7 64 4.4 NW 13 24 7 13 1013.0 1012.9 0.0
02/11:30am 23.3 22.5 16.1 64 4.4 NW 15 26 8 14 1013.2 1013.1 0.0
02/11:00am 24.3 24.5 16.8 63 4.6 NW 11 24 6 13 1013.4 1013.3 0.0
02/10:30am 23.3 23.0 16.4 65 4.2 WNW 13 20 7 11 1013.6 1013.5 0.0
02/10:00am 22.6 22.5 16.9 70 3.5 NW 13 24 7 13 1013.9 1013.8 0.0
02/09:30am 22.7 22.8 16.5 68 3.8 NNW 11 20 6 11 1013.9 1013.8 0.0
02/09:00am 22.1 21.9 16.8 72 3.2 NNW 13 26 7 14 1014.0 1013.9 0.0
02/08:30am 21.8 21.4 17.2 75 2.8 NW 15 33 8 18 1013.8 1013.7 0.0
02/08:00am 21.8 20.8 14.7 64 4.2 WNW 13 24 7 13 1013.5 1013.4 0.0
02/07:30am 20.5 20.1 13.0 62 4.3 ENE 7 19 4 10 1012.7 1012.6 0.0
02/07:00am 19.1 18.9 11.9 63 4.0 E 4 9 2 5 1012.1 1012.1 0.0
02/06:30am 16.9 17.5 12.0 73 2.7 CALM 0 0 0 0 1012.3 1012.2 0.0
02/06:00am 16.6 17.4 12.4 76 2.3 E 0 4 0 2 1012.4 1012.3 0.0
02/05:30am 17.2 17.5 12.1 72 2.8 E 2 7 1 4 1012.5 1012.4 0.0
02/05:00am 17.1 17.8 12.2 73 2.7 CALM 0 2 0 1 1012.4 1012.3 0.0
02/04:30am 17.8 17.2 11.8 68 3.3 E 6 9 3 5 1012.6 1012.5 0.0
02/04:00am 17.9 17.4 11.9 68 3.3 E 6 9 3 5 1012.3 1012.2 0.0
02/03:30am 17.9 18.8 12.8 72 2.9 CALM 0 6 0 3 1012.3 1012.2 0.0
02/03:00am 17.9 18.4 14.0 78 2.2 ENE 4 7 2 4 1012.7 1012.6 0.0
02/02:30am 17.6 19.0 14.5 82 1.8 CALM 0 0 0 0 1012.6 1012.5 0.0
02/02:00am 17.5 18.8 14.2 81 1.9 CALM 0 0 0 0 1012.9 1012.8 0.0
02/01:30am 17.2 18.3 13.5 79 2.1 CALM 0 0 0 0 1013.2 1013.1 0.0
02/01:00am 17.3 18.4 13.4 78 2.2 CALM 0 0 0 0 1013.4 1013.3 0.0
02/12:30am 18.4 19.6 13.7 74 2.7 CALM 0 0 0 0 1013.8 1013.7 0.0
02/12:00am 19.9 21.3 14.5 71 3.1 ENE 0 0 0 0 1014.1 1014.0 0.0
 
Date/Time
WST
Temp
°C
App
Temp
°C
Dew
Point
Rel
Hum
%
Delta-T
°C
Wind Press
QNH
hPa
Press
MSL
hPa
Rain
since 9 am
mm
Dir
 
Spd
km/h
Gust
km/h
Spd
kts
Gust
kts
01/11:30pm 20.4 20.1 11.6 57 4.9 ENE 4 9 2 5 1014.3 1014.2 0.0
01/11:00pm 21.1 22.2 13.5 62 4.4 CALM 0 0 0 0 1014.2 1014.1 0.0
01/10:30pm 21.5 21.9 12.6 57 5.0 ENE 2 6 1 3 1014.4 1014.3 0.0
01/10:00pm 23.9 22.5 9.5 40 7.8 NNE 7 13 4 7 1015.2 1015.1 0.0
01/09:30pm 22.9 23.3 11.3 48 6.5 CALM 0 0 0 0 1015.0 1014.9 0.0
01/09:00pm 24.5 23.1 8.9 37 8.4 NW 6 9 3 5 1014.7 1014.6 0.0
01/08:30pm 24.3 23.3 8.7 37 8.4 E 4 13 2 7 1014.5 1014.4 0.0
01/08:00pm 25.3 23.8 8.3 34 9.1 E 6 13 3 7 1014.2 1014.1 0.0
01/07:30pm 25.0 23.4 8.1 34 9.0 E 6 11 3 6 1013.7 1013.6 0.0
01/07:00pm 24.8 24.4 9.9 39 8.2 E 2 7 1 4 1013.7 1013.6 0.0
01/06:30pm 25.9 24.4 8.4 33 9.4 E 6 9 3 5 1013.6 1013.5 0.0
01/06:00pm 26.8 24.7 8.3 31 10.0 ESE 9 17 5 9 1013.3 1013.2 0.0
01/05:30pm 27.1 25.2 9.0 32 9.9 E 9 17 5 9 1013.4 1013.3 0.0
01/05:00pm 27.7 25.9 9.5 32 10.1 E 9 13 5 7 1013.3 1013.2 0.0
01/04:30pm 27.5 26.0 10.7 35 9.5 ESE 9 19 5 10 1013.8 1013.7 0.0
01/04:00pm 27.9 26.3 10.1 33 10.0 ENE 9 15 5 8 1014.4 1014.3 0.0
01/03:30pm 28.5 26.0 9.7 31 10.5 ENE 13 22 7 12 1014.0 1013.9 0.0
01/03:00pm 28.0 26.3 11.1 35 9.6 E 11 22 6 12 1014.0 1013.9 0.0
01/02:30pm 27.4 25.7 12.6 40 8.6 E 13 22 7 12 1014.2 1014.1 0.0
01/02:00pm 26.5 25.2 11.4 39 8.6 E 9 13 5 7 1014.9 1014.8 0.0
01/01:30pm 26.9 24.9 11.4 38 8.8 E 13 24 7 13 1015.4 1015.3 0.0
01/01:00pm 27.4 24.9 11.0 36 9.3 E 15 22 8 12 1015.9 1015.8 0.0
01/12:30pm 26.8 24.3 10.9 37 9.0 E 15 28 8 15 1016.3 1016.2 0.0
01/12:00pm 26.0 23.8 12.1 42 8.0 ENE 15 24 8 13 1016.8 1016.7 0.0
01/11:30am 26.3 24.8 13.1 44 7.7 ENE 13 24 7 13 1017.4 1017.3 0.0
01/11:00am 24.4 22.0 11.4 44 7.3 ENE 15 30 8 16 1017.8 1017.7 0.0
01/10:30am 24.0 21.7 10.3 42 7.6 ENE 13 24 7 13 1018.1 1018.0 0.0
01/10:00am 24.1 21.7 11.4 45 7.1 ENE 15 24 8 13 1018.4 1018.3 0.0
01/09:30am 23.1 20.1 10.5 45 6.9 NE 17 30 9 16 1018.6 1018.5 0.0
01/09:00am 22.0 19.8 10.8 49 6.2 ENE 13 22 7 12 1018.8 1018.7 0.2
01/08:30am 20.4 17.2 9.9 51 5.6 ENE 17 30 9 16 1019.1 1019.0 0.2
01/08:00am 18.8 17.3 10.4 58 4.5 E 9 15 5 8 1019.2 1019.1 0.2
01/07:30am 17.0 15.5 10.4 65 3.5 E 9 17 5 9 1019.3 1019.2 0.2
01/07:00am 15.7 13.7 10.0 69 3.0 E 11 24 6 13 1019.3 1019.2 0.2
01/06:30am 14.6 12.9 9.8 73 2.5 E 9 22 5 12 1019.2 1019.1 0.2
01/06:00am 14.6 12.5 9.8 73 2.5 E 11 19 6 10 1019.3 1019.2 0.2
01/05:30am 14.6 12.5 9.8 73 2.5 E 11 22 6 12 1019.2 1019.1 0.2
01/05:00am 14.6 12.9 9.8 73 2.5 ENE 9 17 5 9 1019.3 1019.2 0.2
01/04:30am 14.6 12.9 10.0 74 2.4 E 9 20 5 11 1019.0 1018.9 0.2
01/04:00am 14.7 12.7 10.1 74 2.4 ENE 11 19 6 10 1019.1 1019.0 0.2
01/03:30am 15.3 12.9 10.1 71 2.7 NE 13 19 7 10 1019.2 1019.1 0.2
01/03:00am 14.2 13.1 9.8 75 2.3 E 6 9 3 5 1018.2 1018.1 0.2
01/02:30am 12.9 12.2 9.9 82 1.5 E 4 9 2 5 1018.5 1018.4 0.2
01/02:00am 13.2 12.2 10.4 83 1.5 E 6 9 3 5 1018.9 1018.8 0.2
01/01:30am 11.7 11.5 10.4 92 0.7 E 2 6 1 3 1019.4 1019.4 0.2
01/01:00am 12.0 11.8 10.4 90 0.8 E 2 7 1 4 1019.8 1019.8 0.2
01/12:30am 12.5 12.4 10.7 89 0.9 SSE 2 6 1 3 1020.2 1020.2 0.2
01/12:00am 13.0 13.2 10.7 86 1.2 CALM 0 0 0 0 1020.4 1020.4 0.2
 
Date/Time
WST
Temp
°C
App
Temp
°C
Dew
Point
Rel
Hum
%
Delta-T
°C
Wind Press
QNH
hPa
Press
MSL
hPa
Rain
since 9 am
mm
Dir
 
Spd
km/h
Gust
km/h
Spd
kts
Gust
kts
30/11:30pm 14.0 13.9 10.8 81 1.7 SSE 2 6 1 3 1020.6 1020.6 0.2
30/11:00pm 15.2 14.7 10.8 75 2.3 SSE 4 9 2 5 1020.8 1020.8 0.2
30/10:30pm 16.1 15.2 11.3 73 2.6 SSE 7 13 4 7 1021.0 1021.0 0.2
30/10:00pm 16.3 15.0 11.2 72 2.7 SSE 9 15 5 8 1021.2 1021.2 0.2
30/09:30pm 15.0 14.3 12.1 83 1.6 S 7 15 4 8 1021.4 1021.4 0.2
30/09:00pm 15.0 15.9 12.9 87 1.2 CALM 0 6 0 3 1021.5 1021.5 0.2
30/08:30pm 15.7 16.6 12.8 83 1.6 CALM 0 0 0 0 1021.5 1021.5 0.2
30/08:00pm 16.8 16.4 12.9 78 2.2 SSW 7 9 4 5 1021.3 1021.3 0.2
30/07:30pm 17.4 17.6 13.1 76 2.4 SSW 4 7 2 4 1021.2 1021.2 0.2
30/07:00pm 17.7 17.6 13.2 75 2.5 SSW 6 7 3 4 1020.9 1020.9 0.2
30/06:30pm 18.4 18.3 13.3 72 2.9 SSW 6 11 3 6 1020.6 1020.6 0.2
30/06:00pm 18.8 18.1 13.2 70 3.2 SW 9 15 5 8 1020.3 1020.3 0.2
30/05:30pm 19.5 18.4 13.0 66 3.7 SW 11 19 6 10 1020.2 1020.2 0.2
30/05:00pm 20.2 19.0 12.7 62 4.2 SSW 11 20 6 11 1020.2 1020.2 0.2
30/04:30pm 20.5 18.3 12.2 59 4.7 SSW 15 22 8 12 1020.2 1020.2 0.2
30/04:00pm 21.5 20.2 12.4 56 5.1 SSW 11 19 6 10 1020.3 1020.3 0.2
30/03:30pm 21.8 20.5 12.4 55 5.3 S 11 17 6 9 1020.3 1020.3 0.2
30/03:00pm 21.8 20.3 11.8 53 5.6 SSW 11 17 6 9 1020.2 1020.2 0.2
30/02:30pm 22.5 20.7 10.9 48 6.4 SSE 11 17 6 9 1020.3 1020.3 0.2
30/02:00pm 22.7 21.5 10.2 45 6.8 E 7 15 4 8 1020.5 1020.5 0.2
30/01:30pm 22.4 21.1 9.9 45 6.8 SE 7 17 4 9 1021.0 1021.0 0.2
30/01:00pm 21.3 19.5 9.5 47 6.3 E 9 19 5 10 1021.4 1021.4 0.2
30/12:30pm 20.5 18.8 10.0 51 5.7 ENE 9 17 5 9 1021.9 1021.9 0.2
30/12:00pm 20.2 19.6 10.3 53 5.3 NNE 4 15 2 8 1022.3 1022.3 0.2
30/11:30am 19.9 19.1 11.7 59 4.5 E 7 17 4 9 1022.8 1022.8 0.2
30/11:00am 18.8 17.1 9.8 56 4.8 ENE 9 17 5 9 1023.1 1023.1 0.2
30/10:30am 18.3 16.1 9.4 56 4.7 ENE 11 24 6 13 1023.4 1023.4 0.0
30/10:00am 17.1 14.4 9.0 59 4.2 ENE 13 19 7 10 1023.7 1023.7 0.0
30/09:30am 17.1 14.5 9.3 60 4.1 ESE 13 19 7 10 1023.7 1023.7 0.0
30/09:00am 16.7 14.2 8.1 57 4.3 ESE 11 20 6 11 1023.7 1023.7 0.6
30/08:30am 15.9 13.3 9.3 65 3.4 SE 13 22 7 12 1023.5 1023.5 0.6
30/08:00am 15.6 15.1 10.8 73 2.5 E 4 7 2 4 1023.4 1023.4 0.6
30/07:30am 14.4 14.2 10.4 77 2.1 S 2 7 1 4 1023.2 1023.2 0.6
30/07:00am 13.8 14.0 10.6 81 1.7 CALM 0 7 0 4 1023.0 1023.0 0.6
30/06:30am 13.4 13.7 10.8 84 1.4 CALM 0 0 0 0 1022.7 1022.7 0.6
30/06:00am 13.2 13.4 10.6 84 1.4 CALM 0 0 0 0 1022.4 1022.4 0.6
30/05:30am 13.2 13.3 10.2 82 1.6 CALM 0 0 0 0 1022.1 1022.1 0.6
30/05:00am 13.4 13.5 10.2 81 1.7 CALM 0 0 0 0 1021.8 1021.8 0.6
30/04:30am 13.5 12.6 10.5 82 1.6 S 6 9 3 5 1021.5 1021.5 0.6
30/04:00am 13.6 13.8 10.6 82 1.6 CALM 0 0 0 0 1021.3 1021.3 0.6
30/03:30am 13.6 13.9 10.8 83 1.5 CALM 0 0 0 0 1021.1 1021.1 0.6
30/03:00am 13.7 14.0 11.0 84 1.4 CALM 0 0 0 0 1021.0 1021.0 0.6
30/02:30am 13.6 13.5 10.9 84 1.4 S 2 6 1 3 1020.9 1020.9 0.6
30/02:00am 13.6 14.0 11.3 86 1.2 CALM 0 0 0 0 1020.8 1020.8 0.6
30/01:30am 13.6 14.0 11.3 86 1.2 CALM 0 0 0 0 1020.8 1020.8 0.6
30/01:00am 13.0 13.3 10.9 87 1.1 CALM 0 0 0 0 1020.8 1020.8 0.6
30/12:30am 12.2 12.2 9.8 85 1.2 CALM 0 0 0 0 1020.7 1020.7 0.6
30/12:00am 12.8 12.7 9.6 81 1.6 CALM 0 0 0 0 1020.9 1020.9 0.6
 
Date/Time
WST
Temp
°C
App
Temp
°C
Dew
Point
Rel
Hum
%
Delta-T
°C
Wind Press
QNH
hPa
Press
MSL
hPa
Rain
since 9 am
mm
Dir
 
Spd
km/h
Gust
km/h
Spd
kts
Gust
kts
29/11:30pm 14.6 13.4 9.4 71 2.7 S 6 9 3 5 1021.0 1021.0 0.6
29/11:00pm 15.6 14.2 9.7 68 3.1 S 7 13 4 7 1021.1 1021.1 0.6

Other Formats:

Comma delimited format used in spreadsheet applications
http://www.bom.gov.au/fwo/IDW60801/IDW60801.94608.axf

JavaScript Object Notation format (JSON) in row-major order
http://www.bom.gov.au/fwo/IDW60801/IDW60801.94608.json